Time;durP1;ratioP1;P1;durP2;ratioP2;P2;SDS_P1;SDS_P2;PMS_P1;PMS_P2;Temp;Humidity;BMP_temperature;BMP_pressure;BME280_temperature;BME280_humidity;BME280_pressure;Samples;Min_cycle;Max_cycle;Signal;HPM_P1;HPM_P2
2021/12/03 00:01:27;;;;;;;8.60;1.98;;;1.70;99.90;;;;;;5134614;27;20157;-70
2021/12/03 00:03:54;;;;;;;3.30;1.42;;;1.80;99.90;;;;;;5135038;27;20035;-70
2021/12/03 00:06:20;;;;;;;3.63;1.75;;;1.70;99.90;;;;;;5133177;27;20046;-70
2021/12/03 00:08:46;;;;;;;11.48;2.42;;;1.70;99.90;;;;;;5133283;27;20039;-70
2021/12/03 00:11:13;;;;;;;6.95;1.63;;;1.70;99.90;;;;;;5134551;27;20039;-70
2021/12/03 00:13:40;;;;;;;7.15;2.42;;;1.80;99.90;;;;;;5133269;27;20057;-70
2021/12/03 00:16:06;;;;;;;2.58;1.40;;;1.80;99.90;;;;;;5134355;27;20039;-70
2021/12/03 00:18:33;;;;;;;3.97;1.95;;;1.80;99.90;;;;;;5134311;27;20042;-70
2021/12/03 00:21:02;;;;;;;5.55;1.92;;;1.80;99.90;;;;;;5134745;27;20046;-70
2021/12/03 00:23:32;;;;;;;5.82;1.58;;;1.70;99.90;;;;;;5134718;27;20050;-70
2021/12/03 00:26:00;;;;;;;7.05;1.65;;;1.70;99.90;;;;;;5134079;27;20035;-70
2021/12/03 00:28:29;;;;;;;5.82;2.13;;;1.70;99.90;;;;;;5134144;27;20092;-70
2021/12/03 00:30:56;;;;;;;4.70;2.42;;;1.70;99.90;;;;;;5133313;27;20039;-70
2021/12/03 00:33:22;;;;;;;6.97;2.67;;;1.70;99.90;;;;;;5134184;27;20038;-70
2021/12/03 00:35:48;;;;;;;6.75;2.45;;;1.70;99.90;;;;;;5134020;27;20039;-70
2021/12/03 00:38:15;;;;;;;4.55;1.90;;;1.60;99.90;;;;;;5132777;27;20389;-70
2021/12/03 00:40:41;;;;;;;7.30;2.53;;;1.60;99.90;;;;;;5132935;27;20050;-70
2021/12/03 00:43:08;;;;;;;8.02;2.35;;;1.60;99.90;;;;;;5132802;28;20043;-70
2021/12/03 00:45:35;;;;;;;3.42;2.15;;;1.60;99.90;;;;;;5134046;27;20053;-71
2021/12/03 00:48:01;;;;;;;5.88;2.30;;;1.60;99.90;;;;;;5133172;27;20066;-70
2021/12/03 00:50:28;;;;;;;7.15;2.47;;;1.70;99.90;;;;;;5115670;28;20075;-70
2021/12/03 00:52:54;;;;;;;5.07;2.83;;;1.70;99.90;;;;;;5133276;27;20050;-70
2021/12/03 00:55:22;;;;;;;5.95;2.92;;;1.60;99.90;;;;;;5134353;27;20081;-70
2021/12/03 00:57:48;;;;;;;5.78;2.47;;;1.70;99.90;;;;;;5133824;27;20164;-70
2021/12/03 01:00:23;;;;;;;6.68;2.70;;;1.70;99.90;;;;;;5134155;27;20458;-70
2021/12/03 01:02:50;;;;;;;6.25;2.88;;;1.70;99.90;;;;;;5134137;27;20079;-70
2021/12/03 01:05:16;;;;;;;6.80;2.55;;;1.70;99.90;;;;;;5134423;27;20434;-70
2021/12/03 01:07:42;;;;;;;8.45;3.20;;;1.70;99.90;;;;;;5133472;27;20089;-70
2021/12/03 01:10:08;;;;;;;7.13;2.75;;;1.70;99.90;;;;;;5136065;27;20074;-70
2021/12/03 01:12:35;;;;;;;9.45;2.85;;;1.70;99.90;;;;;;5136598;27;20039;-70
2021/12/03 01:15:01;;;;;;;6.07;2.42;;;1.70;99.90;;;;;;5136709;27;20114;-70
2021/12/03 01:17:27;;;;;;;3.88;1.88;;;1.70;99.90;;;;;;5137911;27;20047;-70
2021/12/03 01:19:53;;;;;;;5.80;2.42;;;1.80;99.90;;;;;;5138022;27;20431;-70
2021/12/03 01:22:18;;;;;;;7.03;2.65;;;1.80;99.90;;;;;;5136735;27;20126;-70
2021/12/03 01:24:44;;;;;;;6.47;2.78;;;1.80;99.90;;;;;;5138023;27;20038;-70
2021/12/03 01:27:10;;;;;;;5.25;2.30;;;1.80;99.90;;;;;;5136311;27;20405;-70
2021/12/03 01:29:35;;;;;;;5.53;2.08;;;1.80;99.90;;;;;;5136807;27;20043;-70
2021/12/03 01:32:01;;;;;;;7.80;2.42;;;1.80;99.90;;;;;;5136641;27;20381;-70
2021/12/03 01:34:27;;;;;;;7.32;2.30;;;1.80;99.90;;;;;;5137472;27;20059;-70
2021/12/03 01:36:53;;;;;;;5.18;2.47;;;1.80;99.90;;;;;;5137255;27;20067;-70
2021/12/03 01:39:19;;;;;;;5.28;2.38;;;1.80;99.90;;;;;;5119452;27;20118;-70
2021/12/03 01:41:44;;;;;;;7.25;2.50;;;1.90;99.90;;;;;;5137421;27;20031;-70
2021/12/03 01:44:10;;;;;;;6.03;2.70;;;1.90;99.90;;;;;;5137428;27;20035;-70
2021/12/03 01:46:36;;;;;;;5.18;2.40;;;1.90;99.90;;;;;;5135724;27;20039;-70
2021/12/03 01:49:03;;;;;;;6.25;2.42;;;1.90;99.90;;;;;;5137388;27;20527;-70
2021/12/03 01:51:29;;;;;;;7.63;2.70;;;1.90;99.90;;;;;;5137548;27;20039;-70
2021/12/03 01:53:56;;;;;;;6.28;2.42;;;1.90;99.90;;;;;;5137348;27;20039;-70
2021/12/03 01:56:22;;;;;;;12.55;3.40;;;1.90;99.90;;;;;;5136795;27;20035;-70
2021/12/03 01:58:51;;;;;;;6.40;3.20;;;1.90;99.90;;;;;;5137045;27;20046;-70
2021/12/03 02:01:20;;;;;;;7.70;3.40;;;2.00;99.90;;;;;;5137182;27;20150;-70
2021/12/03 02:03:49;;;;;;;5.22;3.00;;;2.00;99.90;;;;;;5136328;27;20068;-70
2021/12/03 02:06:15;;;;;;;7.18;3.95;;;2.00;99.90;;;;;;5135768;27;20043;-70
2021/12/03 02:08:42;;;;;;;7.53;4.13;;;2.00;99.90;;;;;;5135414;27;20035;-70
2021/12/03 02:11:09;;;;;;;9.43;4.32;;;2.00;99.90;;;;;;5135759;27;20043;-70
2021/12/03 02:13:35;;;;;;;10.40;4.15;;;2.00;99.90;;;;;;5136779;27;20039;-70
2021/12/03 02:16:02;;;;;;;10.90;4.30;;;2.00;99.90;;;;;;5136574;27;20039;-70
2021/12/03 02:18:28;;;;;;;13.30;4.70;;;2.00;99.90;;;;;;5135803;27;20079;-70
2021/12/03 02:20:56;;;;;;;10.40;4.68;;;2.00;99.90;;;;;;5134313;27;20077;-70
2021/12/03 02:23:23;;;;;;;8.32;5.20;;;2.10;99.90;;;;;;5135361;27;20035;-70
2021/12/03 02:25:50;;;;;;;8.30;4.30;;;2.10;99.90;;;;;;5136315;27;20039;-70
2021/12/03 02:28:17;;;;;;;10.82;5.30;;;2.10;99.90;;;;;;5136466;27;20054;-70
2021/12/03 02:30:45;;;;;;;12.65;5.88;;;2.10;99.90;;;;;;5137050;27;20039;-70
2021/12/03 02:33:11;;;;;;;9.48;5.45;;;2.10;99.90;;;;;;5136376;27;20039;-70
2021/12/03 02:35:40;;;;;;;13.13;6.15;;;2.10;99.90;;;;;;5135023;27;20430;-70
2021/12/03 02:38:06;;;;;;;10.55;5.93;;;2.10;99.90;;;;;;5135379;27;20050;-70
2021/12/03 02:40:32;;;;;;;10.68;6.28;;;2.10;99.90;;;;;;5136824;27;20415;-70
2021/12/03 02:42:58;;;;;;;9.63;6.10;;;2.10;99.90;;;;;;5136242;27;20563;-70
2021/12/03 02:45:24;;;;;;;12.52;5.95;;;2.10;99.90;;;;;;5136559;27;20073;-70
2021/12/03 02:47:51;;;;;;;13.85;5.93;;;2.10;99.90;;;;;;5135033;27;20050;-70
2021/12/03 02:50:17;;;;;;;12.80;6.30;;;2.10;99.90;;;;;;5136554;27;20039;-70
2021/12/03 02:52:45;;;;;;;13.60;7.25;;;2.10;99.90;;;;;;5136116;27;20070;-70
2021/12/03 02:55:11;;;;;;;8.95;6.03;;;2.10;99.90;;;;;;5136043;27;20536;-70
2021/12/03 02:57:37;;;;;;;16.05;7.55;;;2.10;99.90;;;;;;5135821;27;20035;-70
2021/12/03 03:00:06;;;;;;;18.00;7.45;;;2.10;99.90;;;;;;5135113;27;20053;-70
2021/12/03 03:02:32;;;;;;;12.45;7.18;;;2.20;99.90;;;;;;5134812;27;20065;-70
2021/12/03 03:04:58;;;;;;;13.63;8.25;;;2.20;99.90;;;;;;5134649;27;20551;-70
2021/12/03 03:07:23;;;;;;;18.17;9.38;;;2.20;99.90;;;;;;5117171;27;20450;-70
2021/12/03 03:09:49;;;;;;;21.23;11.85;;;2.10;99.90;;;;;;5135764;27;20130;-70
2021/12/03 03:12:17;;;;;;;21.63;12.70;;;2.10;99.90;;;;;;5135674;27;20031;-70
2021/12/03 03:14:51;;;;;;;25.73;13.35;;;2.20;99.90;;;;;;5135617;27;20501;-70
2021/12/03 03:17:17;;;;;;;26.27;15.05;;;2.20;99.90;;;;;;5135425;27;20035;-70
2021/12/03 03:19:43;;;;;;;26.63;15.82;;;2.20;99.90;;;;;;5134435;27;20074;-70
2021/12/03 03:22:09;;;;;;;29.42;16.95;;;2.20;99.90;;;;;;5136063;27;20483;-70
2021/12/03 03:24:35;;;;;;;29.23;18.35;;;2.20;99.90;;;;;;5135430;27;20035;-70
2021/12/03 03:27:01;;;;;;;30.08;19.38;;;2.10;99.90;;;;;;5116814;27;20039;-70
2021/12/03 03:29:28;;;;;;;31.55;19.40;;;2.20;99.90;;;;;;5135274;27;20093;-70
2021/12/03 03:31:53;;;;;;;39.25;22.77;;;2.20;99.90;;;;;;5135182;27;20156;-70
2021/12/03 03:34:19;;;;;;;37.45;22.52;;;2.20;99.90;;;;;;5134056;27;20066;-70
2021/12/03 03:36:45;;;;;;;37.25;23.70;;;2.20;99.90;;;;;;5133488;27;20043;-70
2021/12/03 03:39:13;;;;;;;38.10;22.25;;;2.20;99.90;;;;;;5135535;27;20047;-70
2021/12/03 03:41:40;;;;;;;34.97;23.75;;;2.20;99.90;;;;;;5133764;27;20484;-70
2021/12/03 03:44:06;;;;;;;44.67;26.35;;;2.30;99.90;;;;;;5133856;27;20411;-70
2021/12/03 03:46:32;;;;;;;36.38;24.45;;;2.30;99.90;;;;;;5134706;27;20038;-70
2021/12/03 03:48:58;;;;;;;36.30;24.90;;;2.30;99.90;;;;;;5116435;27;20476;-70
2021/12/03 03:51:24;;;;;;;38.50;25.58;;;2.30;99.90;;;;;;5133667;27;20041;-70
2021/12/03 03:53:49;;;;;;;40.53;25.15;;;2.30;99.90;;;;;;5133687;27;20038;-70
2021/12/03 03:56:15;;;;;;;39.30;24.90;;;2.30;99.90;;;;;;5133577;27;20392;-70
2021/12/03 03:58:41;;;;;;;40.65;24.83;;;2.30;99.90;;;;;;5133797;27;20043;-70
2021/12/03 04:01:12;;;;;;;45.28;23.42;;;2.30;99.90;;;;;;5133455;27;20118;-70
2021/12/03 04:03:38;;;;;;;34.55;23.00;;;2.30;99.90;;;;;;5134684;27;20532;-70
2021/12/03 04:06:04;;;;;;;37.90;24.50;;;2.30;99.90;;;;;;5134792;27;20023;-70
2021/12/03 04:08:30;;;;;;;35.70;21.05;;;2.30;99.90;;;;;;5135106;27;20507;-70
2021/12/03 04:11:00;;;;;;;34.92;23.05;;;2.30;99.90;;;;;;5134566;27;20042;-70
2021/12/03 04:13:26;;;;;;;38.45;21.80;;;2.30;99.90;;;;;;5128535;27;20032;-70
2021/12/03 04:15:53;;;;;;;32.47;22.08;;;2.30;99.90;;;;;;5113856;28;20035;-70
2021/12/03 04:18:19;;;;;;;29.95;21.08;;;2.30;99.90;;;;;;5114289;28;20043;-71
2021/12/03 04:20:45;;;;;;;32.47;21.08;;;2.30;99.90;;;;;;5113957;28;20035;-70
2021/12/03 04:23:16;;;;;;;33.58;21.45;;;2.30;99.90;;;;;;5113392;28;20050;-70
2021/12/03 04:25:42;;;;;;;26.73;19.17;;;2.20;99.90;;;;;;5112661;28;20040;-70
2021/12/03 04:28:08;;;;;;;25.23;18.35;;;2.30;99.90;;;;;;5114368;28;20535;-70
2021/12/03 04:30:34;;;;;;;26.48;19.00;;;2.30;99.90;;;;;;5113082;28;20111;-70
2021/12/03 04:33:00;;;;;;;28.38;18.73;;;2.30;99.90;;;;;;5114113;28;20079;-70
2021/12/03 04:35:26;;;;;;;24.85;18.55;;;2.30;99.90;;;;;;5114451;28;20039;-70
2021/12/03 04:37:52;;;;;;;31.10;18.92;;;2.30;99.90;;;;;;5112369;28;20047;-70
2021/12/03 04:40:19;;;;;;;28.45;18.33;;;2.20;99.90;;;;;;5112656;28;20059;-70
2021/12/03 04:42:45;;;;;;;26.17;18.60;;;2.20;99.90;;;;;;5112254;28;20044;-70
2021/12/03 04:45:14;;;;;;;28.70;18.80;;;2.20;99.90;;;;;;5112111;28;20043;-70
2021/12/03 04:47:40;;;;;;;28.05;18.15;;;2.20;99.90;;;;;;5111815;28;20047;-70
2021/12/03 04:50:08;;;;;;;24.00;18.10;;;2.20;99.90;;;;;;5112373;28;20393;-70
2021/12/03 04:52:34;;;;;;;28.05;17.33;;;2.20;99.90;;;;;;5112659;28;20039;-70
2021/12/03 04:55:00;;;;;;;29.00;18.95;;;2.20;99.90;;;;;;5113594;28;20038;-70
2021/12/03 04:57:25;;;;;;;22.95;18.35;;;2.10;99.90;;;;;;5112103;28;20035;-70
2021/12/03 04:59:51;;;;;;;28.13;20.17;;;2.10;99.90;;;;;;5113597;28;20039;-70
2021/12/03 05:02:19;;;;;;;26.33;18.88;;;2.10;99.90;;;;;;5113771;28;20510;-70
2021/12/03 05:04:45;;;;;;;27.90;18.65;;;2.10;99.90;;;;;;5113459;28;20035;-70
2021/12/03 05:09:37;;;;;;;27.40;18.92;;;2.10;99.90;;;;;;5113315;28;20043;-70
2021/12/03 05:12:06;;;;;;;28.05;18.60;;;2.10;99.90;;;;;;5113706;28;20028;-70
2021/12/03 05:14:32;;;;;;;21.88;17.40;;;2.00;99.90;;;;;;5113492;28;20036;-70
2021/12/03 05:16:58;;;;;;;24.25;18.38;;;2.10;99.90;;;;;;5113074;28;20532;-70
2021/12/03 05:19:23;;;;;;;24.77;17.08;;;2.00;99.90;;;;;;5113859;28;20035;-70
2021/12/03 05:21:49;;;;;;;24.25;18.92;;;2.10;99.90;;;;;;5112045;28;20044;-70
2021/12/03 05:24:16;;;;;;;24.83;17.30;;;2.00;99.90;;;;;;5113489;28;20075;-70
2021/12/03 05:26:44;;;;;;;24.17;16.63;;;2.10;99.90;;;;;;5112910;28;20048;-70
2021/12/03 05:29:10;;;;;;;21.95;17.13;;;2.10;99.90;;;;;;5112108;28;20044;-70
2021/12/03 05:31:37;;;;;;;21.05;15.15;;;2.00;99.90;;;;;;5113419;28;20058;-70
2021/12/03 05:34:04;;;;;;;21.13;17.17;;;2.10;99.90;;;;;;5094914;28;20493;-70
2021/12/03 05:36:31;;;;;;;29.08;17.02;;;2.10;99.90;;;;;;5111467;28;20050;-70
2021/12/03 05:38:56;;;;;;;19.45;15.50;;;2.10;99.90;;;;;;5113118;28;20035;-70
2021/12/03 05:41:22;;;;;;;21.55;16.95;;;2.10;99.90;;;;;;5113019;28;20080;-70
2021/12/03 05:43:48;;;;;;;21.48;15.73;;;2.10;99.90;;;;;;5111787;28;20043;-70
2021/12/03 05:46:14;;;;;;;21.17;17.23;;;2.10;99.90;;;;;;5111585;28;20036;-70
2021/12/03 05:48:40;;;;;;;22.65;16.17;;;2.10;99.90;;;;;;5113060;28;20059;-70
2021/12/03 05:51:06;;;;;;;21.85;16.70;;;2.00;99.90;;;;;;5113160;28;20393;-70
2021/12/03 05:53:32;;;;;;;23.02;17.67;;;2.00;99.90;;;;;;5112160;28;20036;-70
2021/12/03 05:55:58;;;;;;;23.00;18.55;;;2.00;99.90;;;;;;5114033;28;20489;-70
2021/12/03 05:58:24;;;;;;;22.35;16.63;;;2.00;99.90;;;;;;5116676;28;20046;-70
2021/12/03 06:00:51;;;;;;;19.00;14.93;;;2.00;99.90;;;;;;5115222;28;20069;-70
2021/12/03 06:03:16;;;;;;;20.05;16.95;;;2.00;99.90;;;;;;5116313;28;20089;-70
2021/12/03 06:05:43;;;;;;;22.90;16.40;;;2.00;99.90;;;;;;5116377;28;20035;-70
2021/12/03 06:08:09;;;;;;;21.67;16.27;;;2.10;99.90;;;;;;5115052;28;20051;-70
2021/12/03 06:10:35;;;;;;;26.10;16.23;;;2.10;99.90;;;;;;5116553;28;20099;-70
2021/12/03 06:13:01;;;;;;;22.70;16.33;;;2.00;99.90;;;;;;5116780;28;20039;-70
2021/12/03 06:15:27;;;;;;;23.70;16.67;;;2.00;99.90;;;;;;5116338;28;20446;-70
2021/12/03 06:17:53;;;;;;;22.70;17.83;;;2.00;99.90;;;;;;5115887;28;20050;-69
2021/12/03 06:20:19;;;;;;;27.23;17.08;;;2.00;99.90;;;;;;5116404;28;20043;-70
2021/12/03 06:22:46;;;;;;;22.15;16.48;;;2.00;99.90;;;;;;5115332;28;20067;-69
2021/12/03 06:25:13;;;;;;;28.15;18.35;;;2.00;99.90;;;;;;5116402;28;20043;-70
2021/12/03 06:27:40;;;;;;;28.60;18.25;;;2.10;99.90;;;;;;5116033;28;20496;-69
2021/12/03 06:30:10;;;;;;;22.85;17.33;;;2.10;99.90;;;;;;5116162;28;20047;-69
2021/12/03 06:32:36;;;;;;;24.48;17.75;;;2.10;99.90;;;;;;5116705;28;20455;-70
2021/12/03 06:35:03;;;;;;;21.48;17.65;;;2.10;99.90;;;;;;5116065;28;20415;-69
2021/12/03 06:37:29;;;;;;;25.15;18.20;;;2.10;99.90;;;;;;5115809;28;20040;-69
2021/12/03 06:39:54;;;;;;;26.20;18.17;;;2.20;99.90;;;;;;5116059;28;20118;-70
2021/12/03 06:42:20;;;;;;;27.33;18.83;;;2.10;99.90;;;;;;5115869;28;20038;-70
2021/12/03 06:44:45;;;;;;;28.80;17.55;;;2.10;99.90;;;;;;5115606;28;20036;-70
2021/12/03 06:47:11;;;;;;;28.67;18.10;;;2.20;99.90;;;;;;5115287;28;20032;-70
2021/12/03 06:49:36;;;;;;;25.05;15.90;;;2.20;99.90;;;;;;5114357;28;20052;-69
2021/12/03 06:52:06;;;;;;;25.73;16.85;;;2.20;99.90;;;;;;5115752;28;20369;-70
2021/12/03 06:54:34;;;;;;;25.40;18.08;;;2.20;99.90;;;;;;5114275;28;20075;-70
2021/12/03 06:57:02;;;;;;;28.02;17.25;;;2.20;99.90;;;;;;5115167;28;20084;-70
2021/12/03 06:59:28;;;;;;;26.98;18.10;;;2.30;99.90;;;;;;5114231;28;20047;-70
2021/12/03 07:01:54;;;;;;;24.67;16.30;;;2.30;99.90;;;;;;5097368;28;20052;-70
2021/12/03 07:04:21;;;;;;;24.38;16.05;;;2.30;99.90;;;;;;5115512;28;20482;-70
2021/12/03 07:06:47;;;;;;;27.42;18.27;;;2.30;99.90;;;;;;5113515;28;20070;-70
2021/12/03 07:09:13;;;;;;;24.17;16.40;;;2.40;99.90;;;;;;5115341;28;20430;-70
2021/12/03 07:11:39;;;;;;;27.25;16.08;;;2.40;99.90;;;;;;5114090;28;20054;-70
2021/12/03 07:14:05;;;;;;;23.42;15.00;;;2.50;99.90;;;;;;5114979;28;20101;-70
2021/12/03 07:16:31;;;;;;;21.55;14.73;;;2.50;99.90;;;;;;5114680;28;20040;-70
2021/12/03 07:18:57;;;;;;;20.80;14.50;;;2.40;99.90;;;;;;5097311;28;20043;-70
2021/12/03 07:21:23;;;;;;;24.65;15.40;;;2.50;99.90;;;;;;5113561;28;20082;-70
2021/12/03 07:23:51;;;;;;;20.25;14.68;;;2.50;99.90;;;;;;5114873;27;20042;-70
2021/12/03 07:26:17;;;;;;;22.13;14.85;;;2.50;99.90;;;;;;5113389;28;20106;-70
2021/12/03 07:28:44;;;;;;;21.02;13.48;;;2.50;99.90;;;;;;5114591;28;20044;-70
2021/12/03 07:31:10;;;;;;;22.45;14.18;;;2.50;99.90;;;;;;5114700;28;20114;-70
2021/12/03 07:33:35;;;;;;;21.95;14.70;;;2.50;99.90;;;;;;5113885;28;20076;-70
2021/12/03 07:36:01;;;;;;;23.17;13.40;;;2.50;99.90;;;;;;5113123;28;20068;-70
2021/12/03 07:38:27;;;;;;;24.48;14.68;;;2.50;99.90;;;;;;5114576;28;20043;-70
2021/12/03 07:40:52;;;;;;;17.50;11.30;;;2.50;99.90;;;;;;5114757;28;20035;-70
2021/12/03 07:43:19;;;;;;;20.77;12.10;;;2.50;99.90;;;;;;5114558;28;20043;-70
2021/12/03 07:45:45;;;;;;;19.60;12.45;;;2.50;99.90;;;;;;5114302;28;20084;-71
2021/12/03 07:48:11;;;;;;;21.42;12.88;;;2.50;99.90;;;;;;5114697;28;20034;-70
2021/12/03 07:50:39;;;;;;;18.50;11.05;;;2.50;99.90;;;;;;5114681;28;20473;-70
2021/12/03 07:53:05;;;;;;;16.25;10.35;;;2.50;99.90;;;;;;5114929;28;20043;-70
2021/12/03 07:55:31;;;;;;;18.45;10.60;;;2.50;99.90;;;;;;5114728;28;20361;-71
2021/12/03 07:57:57;;;;;;;15.68;9.57;;;2.60;99.90;;;;;;5114460;28;20032;-70
2021/12/03 08:00:22;;;;;;;15.48;9.38;;;2.60;99.90;;;;;;5113679;28;20062;-70
2021/12/03 08:02:49;;;;;;;17.73;10.00;;;2.50;99.90;;;;;;5114473;28;20039;-70
2021/12/03 08:05:15;;;;;;;17.85;10.77;;;2.60;99.90;;;;;;5113402;28;20122;-71
2021/12/03 08:07:45;;;;;;;19.13;10.27;;;2.60;99.90;;;;;;5113724;28;20573;-70
2021/12/03 08:10:12;;;;;;;17.02;10.35;;;2.60;99.90;;;;;;5112918;28;20119;-70
2021/12/03 08:12:42;;;;;;;16.95;9.60;;;2.60;99.90;;;;;;5113076;28;20102;-70
2021/12/03 08:15:08;;;;;;;16.50;8.93;;;2.70;99.90;;;;;;5113787;28;20039;-71
2021/12/03 08:17:35;;;;;;;17.40;10.85;;;2.70;99.90;;;;;;5112071;28;20168;-71
2021/12/03 08:20:00;;;;;;;15.80;9.63;;;2.70;99.90;;;;;;5113661;28;20469;-70
2021/12/03 08:22:26;;;;;;;19.67;11.65;;;2.70;99.90;;;;;;5113039;28;20035;-70
2021/12/03 08:24:52;;;;;;;16.92;9.63;;;2.70;99.90;;;;;;5114238;28;20510;-71
2021/12/03 08:27:18;;;;;;;16.90;9.57;;;2.70;99.90;;;;;;5113780;28;20036;-70
2021/12/03 08:29:43;;;;;;;18.13;10.38;;;2.70;99.90;;;;;;5113924;28;20043;-70
2021/12/03 08:32:12;;;;;;;18.33;10.60;;;2.80;99.90;;;;;;5114222;28;20115;-70
2021/12/03 08:34:38;;;;;;;19.10;10.18;;;2.80;99.90;;;;;;5113988;28;20054;-70
2021/12/03 08:37:06;;;;;;;16.30;10.35;;;2.80;99.90;;;;;;5113445;28;20036;-71
2021/12/03 08:39:32;;;;;;;18.98;9.88;;;2.80;99.90;;;;;;5112279;28;20043;-71
2021/12/03 08:41:58;;;;;;;21.08;10.63;;;2.80;99.90;;;;;;5113907;28;20364;-70
2021/12/03 08:44:24;;;;;;;19.98;11.07;;;2.80;99.90;;;;;;5112536;28;20047;-70
2021/12/03 08:46:59;;;;;;;21.52;11.38;;;2.90;99.90;;;;;;5113062;28;20493;-71
2021/12/03 08:49:48;;;;;;;22.35;11.45;;;2.90;99.90;;;;;;5113536;28;20112;-71
2021/12/03 08:57:16;;;;;;;21.73;11.05;;;3.10;99.90;;;;;;5113234;28;20106;-70
2021/12/03 08:59:42;;;;;;;25.13;12.60;;;3.10;99.90;;;;;;5113458;28;20046;-70
2021/12/03 09:02:07;;;;;;;25.05;13.27;;;3.10;99.90;;;;;;5112826;28;20039;-70
2021/12/03 09:04:33;;;;;;;23.92;13.43;;;3.10;99.90;;;;;;5113345;28;20039;-70
2021/12/03 09:07:00;;;;;;;24.25;12.95;;;3.20;99.90;;;;;;5111792;28;20100;-71
2021/12/03 09:09:26;;;;;;;23.13;13.35;;;3.20;99.90;;;;;;5112164;28;20055;-70
2021/12/03 09:11:53;;;;;;;30.30;14.25;;;3.20;99.90;;;;;;5113573;28;20503;-70
2021/12/03 09:16:54;;;;;;;24.90;13.90;;;3.30;99.90;;;;;;5112840;28;20135;-71
2021/12/03 09:19:26;;;;;;;22.03;14.10;;;3.20;99.90;;;;;;5113267;28;20047;-71
2021/12/03 09:21:52;;;;;;;32.97;15.18;;;3.30;99.90;;;;;;5112147;28;20156;-71
2021/12/03 09:24:20;;;;;;;26.88;14.85;;;3.30;99.90;;;;;;5113279;28;20456;-71
2021/12/03 09:26:45;;;;;;;36.25;14.80;;;3.30;99.90;;;;;;5111722;28;20051;-71
2021/12/03 09:29:15;;;;;;;24.70;13.52;;;3.40;99.90;;;;;;5111783;28;20387;-71
2021/12/03 09:31:47;;;;;;;28.02;14.68;;;3.40;99.90;;;;;;5117656;28;20118;-71
2021/12/03 09:34:16;;;;;;;26.40;14.63;;;3.40;99.90;;;;;;5115759;28;20132;-71
2021/12/03 09:36:43;;;;;;;28.52;15.13;;;3.40;99.90;;;;;;5116593;27;20032;-71
2021/12/03 09:39:15;;;;;;;24.80;15.73;;;3.40;99.90;;;;;;5117400;28;20047;-70
2021/12/03 09:41:41;;;;;;;33.90;17.75;;;3.40;99.90;;;;;;5116919;28;20039;-71
2021/12/03 09:44:06;;;;;;;32.45;17.90;;;3.40;99.90;;;;;;5116689;28;20511;-71
2021/12/03 09:46:32;;;;;;;29.02;16.55;;;3.40;99.90;;;;;;5116716;28;20080;-70
2021/12/03 09:51:38;;;;;;;33.95;20.85;;;3.50;99.90;;;;;;5116682;27;20500;-70
2021/12/03 09:56:36;;;;;;;36.33;20.35;;;3.50;99.90;;;;;;5115322;28;20044;-70
2021/12/03 10:12:45;;;;;;;32.92;22.15;;;3.70;99.90;;;;;;5135453;27;20477;-70
2021/12/03 10:15:23;;;;;;;37.67;22.13;;;3.70;99.90;;;;;;5135764;27;20065;-70
2021/12/03 10:20:47;;;;;;;39.00;21.73;;;3.70;99.90;;;;;;5136037;27;20050;-70
2021/12/03 10:24:13;;;;;;;39.10;21.35;;;3.80;99.90;;;;;;5135631;27;20114;-70
2021/12/03 10:37:11;;;;;;;34.65;18.77;;;3.90;99.90;;;;;;5134641;27;20047;-71
2021/12/03 10:40:00;;;;;;;39.53;18.50;;;3.80;99.90;;;;;;5136650;27;20054;-70
2021/12/03 11:06:42;;;;;;;40.20;16.40;;;4.00;99.90;;;;;;5134421;27;20154;-70
2021/12/03 11:28:54;;;;;;;17.20;8.75;;;4.10;99.90;;;;;;5135388;27;20044;-73
2021/12/03 11:31:47;;;;;;;19.52;7.63;;;4.20;99.90;;;;;;5135429;27;20054;-73
2021/12/03 11:34:43;;;;;;;19.45;8.00;;;4.20;99.90;;;;;;5135212;27;20035;-73
2021/12/03 11:40:31;;;;;;;22.17;7.88;;;4.20;99.90;;;;;;5133918;27;20050;-73
2021/12/03 11:49:49;;;;;;;14.48;7.40;;;4.30;99.90;;;;;;5133820;27;20043;-73
2021/12/03 11:58:04;;;;;;;18.20;7.82;;;4.20;99.90;;;;;;5133225;27;20134;-73
2021/12/03 12:18:20;;;;;;;18.65;7.00;;;4.20;99.90;;;;;;5134263;27;20484;-73
2021/12/03 13:01:17;;;;;;;12.23;6.68;;;4.20;99.90;;;;;;5112785;28;20051;-71
2021/12/03 14:37:56;;;;;;;11.55;7.50;;;4.30;99.90;;;;;;5115542;28;20035;-70
2021/12/03 14:40:53;;;;;;;17.50;7.97;;;4.30;99.90;;;;;;5115831;28;20035;-71
2021/12/03 14:54:31;;;;;;;18.33;7.70;;;4.40;99.90;;;;;;5114345;28;20047;-71
2021/12/03 14:57:14;;;;;;;12.70;7.68;;;4.40;99.90;;;;;;5114298;28;20050;-71
2021/12/03 14:59:54;;;;;;;13.13;7.90;;;4.40;99.90;;;;;;5115878;28;20054;-72
2021/12/03 15:05:28;;;;;;;18.42;8.55;;;4.50;99.90;;;;;;5114346;28;20043;-71
2021/12/03 15:07:54;;;;;;;18.02;8.85;;;4.50;99.90;;;;;;5115277;28;20069;-71
2021/12/03 15:18:41;;;;;;;12.70;8.45;;;4.50;99.90;;;;;;5114397;28;20047;-71
2021/12/03 15:21:49;;;;;;;17.92;9.43;;;4.50;99.90;;;;;;5115452;28;20156;-71
2021/12/03 15:32:48;;;;;;;15.48;10.23;;;4.50;99.90;;;;;;5115035;28;20047;-71
2021/12/03 15:35:21;;;;;;;14.07;10.15;;;4.50;99.90;;;;;;5096582;28;20116;-71
2021/12/03 15:41:15;;;;;;;13.70;9.55;;;4.60;99.90;;;;;;5113887;28;19915;-72
2021/12/03 15:54:45;;;;;;;18.00;12.63;;;4.60;99.90;;;;;;5114194;28;20065;-71
2021/12/03 15:57:23;;;;;;;14.82;11.07;;;4.70;99.90;;;;;;5112437;28;20123;-71
2021/12/03 16:10:19;;;;;;;18.58;12.45;;;4.70;99.90;;;;;;5113946;28;20075;-71
2021/12/03 16:18:20;;;;;;;19.88;13.43;;;4.80;99.90;;;;;;5113785;28;20048;-71
2021/12/03 16:27:09;;;;;;;22.75;18.50;;;4.70;99.90;;;;;;5112215;28;20044;-71
2021/12/03 16:53:32;;;;;;;28.85;19.88;;;4.70;99.90;;;;;;5112303;28;20044;-71
2021/12/03 16:58:28;;;;;;;31.38;22.15;;;4.70;99.90;;;;;;5112171;28;20055;-71
2021/12/03 17:01:32;;;;;;;28.90;20.25;;;4.70;99.90;;;;;;5113504;28;20043;-72
2021/12/03 17:22:14;;;;;;;29.00;21.70;;;4.70;99.90;;;;;;5113333;28;20404;-71
2021/12/03 17:28:26;;;;;;;33.90;21.67;;;4.80;99.90;;;;;;5111851;28;20051;-71
2021/12/03 17:44:34;;;;;;;30.45;20.85;;;4.80;99.90;;;;;;5113265;28;20043;-70
2021/12/03 17:49:52;;;;;;;33.30;21.58;;;4.80;99.90;;;;;;5113350;28;20497;-70
2021/12/03 18:00:28;;;;;;;31.02;21.25;;;4.80;99.90;;;;;;5115631;28;20057;-70
2021/12/03 18:03:02;;;;;;;34.30;22.83;;;4.90;99.90;;;;;;5098918;28;20044;-70
2021/12/03 18:05:48;;;;;;;31.98;20.90;;;4.80;99.90;;;;;;5116753;28;20118;-71
2021/12/03 18:08:20;;;;;;;32.40;21.58;;;4.80;99.90;;;;;;5115028;28;20044;-70
2021/12/03 18:45:55;;;;;;;39.60;25.33;;;5.00;99.90;;;;;;5115898;28;20481;-70
2021/12/03 18:51:17;;;;;;;39.67;24.17;;;5.00;99.90;;;;;;5115936;28;20036;-72
2021/12/03 18:56:37;;;;;;;36.45;24.05;;;4.90;99.90;;;;;;5114075;28;20044;-72
2021/12/03 18:59:06;;;;;;;38.65;24.98;;;5.00;99.90;;;;;;5115709;28;20039;-72
2021/12/03 19:01:33;;;;;;;41.85;25.70;;;5.00;99.90;;;;;;5115588;28;20032;-72
2021/12/03 19:06:34;;;;;;;37.40;23.83;;;5.00;99.90;;;;;;5113607;28;20112;-72
2021/12/03 19:09:05;;;;;;;41.28;25.10;;;5.00;99.90;;;;;;5115257;27;20488;-72
2021/12/03 19:11:57;;;;;;;42.35;26.02;;;5.00;99.90;;;;;;5115649;28;20110;-72
2021/12/03 19:14:18;;;;;;;38.92;25.38;;;5.00;99.90;;;;;;5113460;28;20071;-72
2021/12/03 19:16:44;;;;;;;42.15;25.92;;;5.00;99.90;;;;;;5115073;28;20039;-70
2021/12/03 19:19:13;;;;;;;39.75;25.45;;;5.00;99.90;;;;;;5115426;28;20039;-70
2021/12/03 19:21:40;;;;;;;40.85;26.38;;;5.00;99.90;;;;;;5114965;28;20570;-70
2021/12/03 19:24:08;;;;;;;42.22;26.98;;;5.00;99.90;;;;;;5097065;28;20039;-70
2021/12/03 19:26:42;;;;;;;40.38;26.13;;;5.00;99.90;;;;;;5114447;28;20070;-70
2021/12/03 19:29:08;;;;;;;42.15;27.42;;;5.00;99.90;;;;;;5115475;28;20047;-71
2021/12/03 19:31:33;;;;;;;42.38;25.50;;;5.00;99.90;;;;;;5113511;28;20397;-70
2021/12/03 19:33:59;;;;;;;45.13;26.85;;;5.00;99.90;;;;;;5113878;28;20031;-71
2021/12/03 19:36:26;;;;;;;43.78;26.35;;;5.10;99.90;;;;;;5114405;28;20047;-71
2021/12/03 19:38:57;;;;;;;44.17;27.80;;;5.10;99.90;;;;;;5113632;28;20046;-71
2021/12/03 19:44:00;;;;;;;43.45;26.50;;;5.10;99.90;;;;;;5113635;28;20059;-70
2021/12/03 19:46:38;;;;;;;47.03;27.77;;;5.10;99.90;;;;;;5114282;28;20466;-70
2021/12/03 19:49:11;;;;;;;44.60;26.58;;;5.10;99.90;;;;;;5114728;28;20099;-71
2021/12/03 19:51:45;;;;;;;44.45;28.08;;;5.10;99.90;;;;;;5115046;28;20113;-70
2021/12/03 19:54:12;;;;;;;48.83;28.95;;;5.10;99.90;;;;;;5114686;28;20507;-70
2021/12/03 19:56:40;;;;;;;48.80;28.13;;;5.10;99.90;;;;;;5114321;28;20079;-69
2021/12/03 19:59:05;;;;;;;46.60;27.88;;;5.10;99.90;;;;;;5114470;28;20040;-71
2021/12/03 20:01:33;;;;;;;48.67;29.20;;;5.10;99.90;;;;;;5114723;28;20051;-71
2021/12/03 20:03:59;;;;;;;48.55;29.80;;;5.10;99.90;;;;;;5114552;28;20189;-70
2021/12/03 20:06:26;;;;;;;56.42;32.53;;;5.10;99.90;;;;;;5112643;28;20039;-72
2021/12/03 20:08:57;;;;;;;53.90;30.48;;;5.10;99.90;;;;;;5114256;28;20044;-72